ěÝzenÝ letovÚho provozu ╚eskÚ republiky
Letiste: LKBC Aktualizace: 26.10.2020 23:25:24  UTC
 METAR LKBC 26.10. 23:30 ...
METAR LKBC 262330Z AUTO 27010KT 9999 -RA SCT013 BKN029 OVC035 08/05 Q1009=